Aviation Digital Data Service (ADDS)

Output produced by METARs form (0354 UTC 01 September 2015)
found at http://aviationweather.gov/adds/metars/
 
KBTV 312340Z 0100/0124 32006KT P6SM FEW100 
     FM011300 VRB05KT P6SM FEW200